首页
METAR-TAF:

METAR-TAF

机场 :

High Level, 艾伯塔, 加拿大

纬度: 58-37N, 经度: 117-10W, 海拔: 338米

当前天气观测

该预报发布于20分钟前的09:00 UTC
风速13节,风向北转西北,有时为18节阵风
温度 -21°C
湿度 70%
气压 1034 hPa
能見度: 14.5公里
天空无云

METAR: CYOJ 020900Z AUTO 33013G18KT 9SM CLR M21/M25 A3053 RMK SLP376

时间: 03:20 (09:20 UTC)

预报

该预报发布于2小时和42分钟前的06:38 UTC
预报有效从02日的 07点(UTC)到 02日的 19点(UTC)
风速8节,风向
能見度: 10公里
天空无云
成为
从 02日的 10点(UTC)到 02日的 12点(UTC)
风速4节,风向
成为
从 02日的 14点(UTC)到 02日的 16点(UTC)
风速10节,风向北转西北

TAF: CYOJ 020638Z 0207/0219 35008KT P6SM SKC BECMG 0210/0212 35004KT BECMG 0214/0216 34010KT RMK FCST BASED ON AUTO OBS. NXT FCST BY 021300Z

超过4000个机场的气象观测和天气预报(METAR&TAF报告)。

可查询的气象台以黄色和红色小点在地图上表示。

将鼠标移到小点上方,可查看气象台名称。

然后点击查看天气观测和预报。

如需切换地图:点击带黑十字的绿色按钮放大地图;点击带横线的绿色按钮缩小地图;或者点击绿色箭头查看邻近地区的地图。


METAR-TAF: